createdAt,value
2022-07-26T00:00:12.747Z,57.00
2022-07-26T00:02:47.440Z,57.40
2022-07-26T00:05:18.491Z,57.60
2022-07-26T00:07:45.949Z,57.40
2022-07-26T00:10:13.228Z,57.90
2022-07-26T00:12:40.259Z,58.50
2022-07-26T00:15:09.931Z,58.10
2022-07-26T00:17:36.618Z,58.00
2022-07-26T00:20:04.521Z,58.00
2022-07-26T00:22:34.055Z,58.00
2022-07-26T00:25:04.689Z,58.00
2022-07-26T00:27:32.392Z,58.00
2022-07-26T00:29:59.233Z,58.10
2022-07-26T00:32:26.107Z,58.20
2022-07-26T00:34:52.848Z,58.20
2022-07-26T00:37:20.876Z,58.20
2022-07-26T00:39:48.495Z,58.40
2022-07-26T00:42:15.429Z,58.60
2022-07-26T00:44:45.268Z,58.50
2022-07-26T00:47:12.360Z,58.70
2022-07-26T00:49:39.131Z,58.80
2022-07-26T00:52:06.560Z,58.80
2022-07-26T00:54:33.476Z,59.30
2022-07-26T00:57:00.318Z,59.40
2022-07-26T00:59:27.021Z,59.40
2022-07-26T01:01:54.158Z,59.10
2022-07-26T01:04:21.211Z,59.20
2022-07-26T01:06:49.041Z,59.30
2022-07-26T01:09:16.693Z,59.80
2022-07-26T01:11:43.431Z,59.60
2022-07-26T01:14:10.557Z,59.60
2022-07-26T01:16:37.651Z,59.70
2022-07-26T01:19:04.771Z,60.00
2022-07-26T01:21:32.477Z,60.00
2022-07-26T01:23:59.448Z,60.20
2022-07-26T01:26:26.121Z,60.90
2022-07-26T01:28:53.020Z,60.60
2022-07-26T01:31:19.824Z,61.50
2022-07-26T01:33:46.738Z,61.40
2022-07-26T01:36:13.697Z,62.00
2022-07-26T01:38:41.080Z,62.50
2022-07-26T01:41:08.043Z,62.90
2022-07-26T01:43:35.293Z,68.40
2022-07-26T01:46:04.020Z,73.50
2022-07-26T01:48:31.313Z,77.10
2022-07-26T01:50:58.599Z,79.20
2022-07-26T01:53:25.268Z,81.10
2022-07-26T01:55:51.971Z,82.30
2022-07-26T01:58:18.861Z,82.20
2022-07-26T02:00:45.740Z,82.80
2022-07-26T02:03:12.514Z,83.00
2022-07-26T02:05:39.273Z,83.30
2022-07-26T02:08:06.097Z,82.50
2022-07-26T02:10:51.991Z,81.70
2022-07-26T02:13:18.713Z,81.60
2022-07-26T02:15:45.578Z,81.40
2022-07-26T02:18:12.370Z,81.50
2022-07-26T02:20:39.344Z,81.20
2022-07-26T02:23:06.093Z,81.70
2022-07-26T02:25:32.959Z,81.40
2022-07-26T02:28:01.137Z,80.80
2022-07-26T02:30:28.234Z,80.80
2022-07-26T02:32:55.489Z,80.70
2022-07-26T02:35:22.180Z,80.60
2022-07-26T02:37:48.865Z,80.40
2022-07-26T02:40:19.356Z,80.30
2022-07-26T02:42:46.563Z,80.30
2022-07-26T02:45:13.302Z,81.10
2022-07-26T02:47:48.439Z,81.10
2022-07-26T02:50:19.383Z,80.80
2022-07-26T02:52:49.205Z,80.50
2022-07-26T02:55:17.606Z,80.60
2022-07-26T02:57:46.410Z,81.60
2022-07-26T03:00:16.103Z,82.40
2022-07-26T03:02:43.050Z,84.50
2022-07-26T03:05:10.198Z,86.80
2022-07-26T03:07:36.920Z,88.10
2022-07-26T03:10:04.635Z,88.40
2022-07-26T03:12:31.757Z,88.90
2022-07-26T03:14:58.432Z,89.20
2022-07-26T03:17:25.365Z,89.80
2022-07-26T03:19:52.095Z,89.70
2022-07-26T03:22:18.930Z,90.60
2022-07-26T03:24:45.591Z,91.00
2022-07-26T03:27:12.288Z,91.70
2022-07-26T03:29:39.008Z,92.30
2022-07-26T03:32:06.019Z,92.90
2022-07-26T03:34:32.954Z,92.70
2022-07-26T03:36:59.637Z,92.80
2022-07-26T03:39:26.311Z,92.60
2022-07-26T03:41:52.957Z,92.90
2022-07-26T03:44:19.699Z,92.90
2022-07-26T03:46:46.461Z,92.90
2022-07-26T03:49:16.676Z,92.60
2022-07-26T03:51:44.162Z,92.50
2022-07-26T03:54:11.577Z,92.80
2022-07-26T03:56:39.165Z,92.80
2022-07-26T03:59:08.540Z,92.60
2022-07-26T04:01:36.410Z,92.20
2022-07-26T04:04:03.314Z,92.40
2022-07-26T04:06:30.112Z,92.20
2022-07-26T04:08:56.901Z,92.20
2022-07-26T04:11:26.718Z,92.50
2022-07-26T04:13:55.958Z,93.50
2022-07-26T04:16:22.913Z,92.90
2022-07-26T04:18:49.643Z,92.40
2022-07-26T04:21:16.772Z,92.10
2022-07-26T04:23:47.786Z,92.20
2022-07-26T04:26:17.921Z,92.10
2022-07-26T04:28:44.556Z,91.70
2022-07-26T04:31:11.397Z,91.90
2022-07-26T04:33:38.243Z,91.80
2022-07-26T04:36:05.254Z,91.70
2022-07-26T04:38:32.159Z,91.80
2022-07-26T04:40:59.279Z,91.80
2022-07-26T04:43:26.248Z,91.70
2022-07-26T04:45:53.225Z,91.50
2022-07-26T04:48:20.240Z,91.40
2022-07-26T04:50:46.990Z,91.50
2022-07-26T04:53:13.837Z,91.20
2022-07-26T04:55:41.489Z,91.10
2022-07-26T04:58:09.818Z,91.30
2022-07-26T05:00:56.532Z,91.40
2022-07-26T05:03:25.137Z,91.70
2022-07-26T05:05:52.439Z,92.00
2022-07-26T05:08:19.182Z,92.00
2022-07-26T05:10:46.016Z,91.90
2022-07-26T05:13:12.717Z,92.20
2022-07-26T05:15:39.532Z,92.50
2022-07-26T05:18:10.791Z,91.60
2022-07-26T05:20:40.812Z,91.20
2022-07-26T05:23:08.133Z,90.60
2022-07-26T05:25:35.050Z,90.10
2022-07-26T05:28:01.966Z,89.40
2022-07-26T05:30:28.997Z,88.50
2022-07-26T05:32:55.783Z,88.80
2022-07-26T05:35:22.459Z,88.20
2022-07-26T05:37:49.348Z,87.90
2022-07-26T05:40:18.804Z,87.70
2022-07-26T05:42:45.496Z,86.60
2022-07-26T05:45:12.423Z,85.80
2022-07-26T05:47:39.220Z,85.50
2022-07-26T05:50:06.763Z,85.50
2022-07-26T05:52:33.553Z,85.30
2022-07-26T05:55:00.269Z,84.60
2022-07-26T05:57:27.020Z,83.80
2022-07-26T05:59:53.693Z,83.40
2022-07-26T06:02:20.557Z,83.50
2022-07-26T06:04:47.826Z,83.50
2022-07-26T06:07:15.160Z,83.60
2022-07-26T06:09:42.048Z,82.80
2022-07-26T06:12:08.906Z,82.90
2022-07-26T06:14:35.881Z,83.10
2022-07-26T06:17:04.277Z,82.60
2022-07-26T06:19:31.785Z,82.80
2022-07-26T06:21:58.725Z,81.70
2022-07-26T06:24:25.638Z,81.30
2022-07-26T06:26:56.801Z,81.20
2022-07-26T06:29:32.342Z,81.90
2022-07-26T06:31:59.568Z,81.10
2022-07-26T06:34:26.322Z,80.90
2022-07-26T06:36:53.063Z,80.30
2022-07-26T06:39:19.794Z,80.50
2022-07-26T06:41:46.672Z,81.60
2022-07-26T06:44:13.420Z,81.30
2022-07-26T06:46:40.345Z,81.20
2022-07-26T06:49:07.259Z,80.30
2022-07-26T06:51:34.103Z,79.60
2022-07-26T06:54:01.110Z,79.00
2022-07-26T06:56:28.035Z,78.40
2022-07-26T06:58:56.240Z,77.30
2022-07-26T07:01:58.168Z,76.10
2022-07-26T07:04:10.093Z,75.80
2022-07-26T07:06:37.013Z,75.50
2022-07-26T07:09:03.861Z,75.80
2022-07-26T07:11:34.973Z,73.00
2022-07-26T07:14:03.331Z,71.90
2022-07-26T07:16:30.368Z,71.70
2022-07-26T07:18:57.223Z,70.70
2022-07-26T07:21:23.985Z,71.50
2022-07-26T07:23:50.672Z,70.60
2022-07-26T07:26:17.398Z,71.00
2022-07-26T07:28:44.162Z,68.60
2022-07-26T07:31:11.791Z,68.70
2022-07-26T07:33:52.496Z,69.00
2022-07-26T07:36:21.012Z,69.80
2022-07-26T07:38:48.771Z,68.20
2022-07-26T07:41:16.449Z,67.70
2022-07-26T07:43:43.099Z,67.70
2022-07-26T07:46:09.822Z,66.60
2022-07-26T07:48:41.130Z,67.20
2022-07-26T07:51:12.029Z,66.00
2022-07-26T07:53:38.749Z,64.80
2022-07-26T07:56:05.507Z,64.40
2022-07-26T07:58:32.565Z,63.90
2022-07-26T08:00:59.302Z,62.80
2022-07-26T08:03:38.268Z,63.10
2022-07-26T08:06:07.413Z,61.90
2022-07-26T08:08:34.607Z,60.40
2022-07-26T08:11:01.592Z,61.80
2022-07-26T08:13:28.265Z,59.70
2022-07-26T08:15:55.795Z,58.60
2022-07-26T08:18:23.600Z,57.30
2022-07-26T08:20:52.750Z,57.90
2022-07-26T08:23:20.963Z,57.10
2022-07-26T08:25:56.446Z,56.90
2022-07-26T08:31:13.887Z,53.90
2022-07-26T08:33:40.950Z,53.60
2022-07-26T08:36:12.787Z,53.50
2022-07-26T08:38:39.485Z,52.50
2022-07-26T08:41:06.343Z,53.20
2022-07-26T08:43:33.195Z,54.40
2022-07-26T08:46:24.940Z,52.80
2022-07-26T08:48:53.553Z,52.50
2022-07-26T08:51:23.646Z,51.50
2022-07-26T08:53:59.089Z,51.00
2022-07-26T08:56:30.993Z,51.20
2022-07-26T08:58:57.812Z,50.80
2022-07-26T09:01:24.575Z,50.00
2022-07-26T09:03:51.344Z,50.40
2022-07-26T09:06:20.409Z,51.10
2022-07-26T09:08:49.874Z,50.70
2022-07-26T09:11:25.305Z,50.10
2022-07-26T09:14:06.096Z,49.60
2022-07-26T09:16:37.240Z,49.20
2022-07-26T09:19:22.358Z,49.20
2022-07-26T09:21:49.589Z,49.40
2022-07-26T09:24:36.136Z,49.70
2022-07-26T09:27:05.421Z,49.50
2022-07-26T09:29:52.672Z,49.70
2022-07-26T09:32:24.566Z,48.90
2022-07-26T09:34:58.903Z,49.00
2022-07-26T09:37:35.814Z,48.00
2022-07-26T09:40:07.036Z,48.70
2022-07-26T09:42:34.949Z,47.60
2022-07-26T09:45:01.895Z,48.40
2022-07-26T09:47:39.500Z,47.90
2022-07-26T09:50:18.190Z,47.30
2022-07-26T09:53:17.326Z,47.40
2022-07-26T09:55:46.736Z,47.20
2022-07-26T09:58:15.377Z,46.10
2022-07-26T10:00:44.284Z,45.00
2022-07-26T10:03:11.608Z,45.70
2022-07-26T10:05:39.004Z,46.00
2022-07-26T10:08:07.062Z,46.30
2022-07-26T10:10:45.239Z,46.90
2022-07-26T10:13:12.274Z,47.50
2022-07-26T10:15:47.643Z,46.40
2022-07-26T10:18:36.481Z,47.10
2022-07-26T10:21:20.891Z,46.60
2022-07-26T10:23:58.803Z,47.40
2022-07-26T10:26:31.631Z,46.60
2022-07-26T10:29:19.179Z,47.00
2022-07-26T10:32:09.939Z,47.20
2022-07-26T10:34:39.113Z,47.60
2022-07-26T10:37:08.713Z,46.60
2022-07-26T10:39:36.145Z,46.50
2022-07-26T10:42:09.534Z,46.30
2022-07-26T10:44:42.023Z,45.90
2022-07-26T10:47:08.713Z,46.50
2022-07-26T10:49:36.836Z,46.60
2022-07-26T10:52:08.006Z,48.10
2022-07-26T10:54:40.263Z,47.80
2022-07-26T10:57:06.961Z,48.50
2022-07-26T10:59:54.897Z,47.80
2022-07-26T11:02:22.964Z,48.00
2022-07-26T11:04:50.386Z,48.50
2022-07-26T11:07:17.218Z,49.10
2022-07-26T11:09:44.042Z,48.60
2022-07-26T11:12:17.998Z,49.10
2022-07-26T11:14:48.436Z,46.50
2022-07-26T11:17:29.424Z,46.30
2022-07-26T11:19:57.021Z,46.00
2022-07-26T11:22:33.999Z,46.50
2022-07-26T11:25:00.760Z,45.80
2022-07-26T11:27:27.719Z,46.10
2022-07-26T11:29:54.421Z,47.90
2022-07-26T11:32:25.082Z,48.80
2022-07-26T11:35:02.660Z,47.80
2022-07-26T11:37:29.863Z,47.20
2022-07-26T11:39:56.746Z,46.70
2022-07-26T11:42:23.586Z,45.80
2022-07-26T11:44:50.876Z,46.80
2022-07-26T11:47:25.556Z,47.00
2022-07-26T11:52:40.598Z,47.70
2022-07-26T11:55:07.980Z,47.60
2022-07-26T11:57:34.747Z,47.70
2022-07-26T12:00:02.053Z,47.40
2022-07-26T12:02:30.602Z,47.40
2022-07-26T12:05:20.142Z,47.90
2022-07-26T12:07:59.018Z,48.10
2022-07-26T12:10:26.857Z,47.90
2022-07-26T12:13:11.513Z,47.50
2022-07-26T12:15:53.413Z,47.90
2022-07-26T12:18:28.563Z,47.00
2022-07-26T12:21:07.822Z,45.30
2022-07-26T12:23:46.196Z,45.00
2022-07-26T12:26:27.686Z,44.60
2022-07-26T12:28:55.313Z,44.80
2022-07-26T12:31:30.930Z,46.10
2022-07-26T12:33:58.515Z,45.90
2022-07-26T12:36:27.187Z,45.70
2022-07-26T12:38:59.753Z,45.00
2022-07-26T12:41:40.227Z,45.10
2022-07-26T12:44:12.217Z,45.20
2022-07-26T12:46:39.533Z,44.70
2022-07-26T12:49:06.471Z,44.80
2022-07-26T12:51:33.669Z,44.00
2022-07-26T12:54:00.458Z,43.50
2022-07-26T12:56:27.208Z,44.30
2022-07-26T12:58:54.368Z,43.70
2022-07-26T13:01:21.488Z,43.10
2022-07-26T13:03:48.334Z,42.30
2022-07-26T13:06:15.060Z,42.60
2022-07-26T13:08:41.756Z,43.70
2022-07-26T13:11:08.633Z,43.30
2022-07-26T13:13:35.356Z,43.30
2022-07-26T13:16:02.157Z,44.00
2022-07-26T13:18:28.914Z,44.50
2022-07-26T13:20:56.822Z,43.80
2022-07-26T13:23:26.652Z,43.10
2022-07-26T13:25:53.691Z,41.70
2022-07-26T13:28:21.289Z,43.00
2022-07-26T13:30:48.072Z,42.10
2022-07-26T13:33:16.550Z,42.70
2022-07-26T13:35:43.440Z,42.70
2022-07-26T13:38:10.188Z,41.40
2022-07-26T13:40:37.084Z,42.90
2022-07-26T13:43:05.142Z,43.00
2022-07-26T13:45:31.806Z,42.70
2022-07-26T13:47:59.504Z,41.30
2022-07-26T13:50:27.920Z,41.40
2022-07-26T13:52:56.299Z,41.20
2022-07-26T13:55:23.790Z,41.30
2022-07-26T13:57:56.092Z,41.70
2022-07-26T14:00:26.104Z,42.00
2022-07-26T14:02:53.505Z,41.90
2022-07-26T14:05:20.493Z,40.60
2022-07-26T14:07:47.233Z,40.20
2022-07-26T14:10:14.081Z,40.10
2022-07-26T14:12:41.121Z,41.10
2022-07-26T14:15:16.643Z,40.30
2022-07-26T14:17:47.006Z,40.70
2022-07-26T14:20:14.875Z,41.30
2022-07-26T14:22:41.575Z,40.40
2022-07-26T14:25:08.618Z,41.00
2022-07-26T14:27:35.555Z,41.00
2022-07-26T14:30:03.115Z,41.00
2022-07-26T14:32:29.816Z,41.40
2022-07-26T14:34:56.510Z,41.90
2022-07-26T14:37:43.342Z,41.40
2022-07-26T14:40:10.867Z,40.50
2022-07-26T14:42:37.579Z,40.20
2022-07-26T14:45:04.726Z,41.00
2022-07-26T14:47:31.420Z,40.30
2022-07-26T14:50:00.562Z,40.10
2022-07-26T14:52:31.005Z,39.50
2022-07-26T14:54:57.770Z,39.20
2022-07-26T14:57:25.000Z,39.60
2022-07-26T14:59:51.868Z,37.90
2022-07-26T15:02:18.719Z,38.10
2022-07-26T15:04:45.500Z,38.20
2022-07-26T15:07:12.363Z,38.20
2022-07-26T15:09:39.115Z,38.50
2022-07-26T15:12:06.071Z,39.00
2022-07-26T15:14:32.999Z,39.40
2022-07-26T15:16:59.817Z,40.30
2022-07-26T15:19:26.629Z,40.30
2022-07-26T15:21:54.839Z,38.50
2022-07-26T15:24:23.128Z,39.50
2022-07-26T15:26:51.112Z,40.00
2022-07-26T15:29:17.883Z,39.20
2022-07-26T15:31:44.791Z,39.50
2022-07-26T15:34:12.061Z,39.50
2022-07-26T15:36:39.221Z,39.50
2022-07-26T15:39:16.754Z,39.70
2022-07-26T15:41:46.193Z,40.10
2022-07-26T15:44:13.402Z,40.20
2022-07-26T15:46:41.753Z,39.90
2022-07-26T15:49:10.193Z,39.50
2022-07-26T15:51:37.394Z,40.10
2022-07-26T15:54:04.787Z,39.50
2022-07-26T15:56:31.467Z,40.40
2022-07-26T15:58:58.319Z,40.90
2022-07-26T16:01:25.162Z,40.70
2022-07-26T16:03:51.991Z,39.60
2022-07-26T16:06:18.730Z,40.40
2022-07-26T16:09:14.778Z,40.30
2022-07-26T16:11:32.531Z,41.10
2022-07-26T16:14:01.238Z,40.10
2022-07-26T16:16:29.575Z,41.30
2022-07-26T16:18:56.546Z,40.70
2022-07-26T16:21:23.373Z,40.90
2022-07-26T16:23:51.024Z,40.90
2022-07-26T16:26:18.436Z,41.40
2022-07-26T16:28:45.445Z,41.40
2022-07-26T16:31:12.556Z,41.60
2022-07-26T16:33:45.792Z,41.80
2022-07-26T16:36:14.047Z,41.80
2022-07-26T16:38:40.836Z,41.50
2022-07-26T16:41:07.686Z,41.00
2022-07-26T16:43:35.247Z,41.00
2022-07-26T16:46:02.105Z,41.00
2022-07-26T16:48:28.865Z,40.10
2022-07-26T16:50:55.622Z,39.70
2022-07-26T16:53:22.357Z,39.30
2022-07-26T16:55:51.665Z,39.00
2022-07-26T16:58:19.711Z,39.30
2022-07-26T17:00:47.120Z,39.60
2022-07-26T17:03:15.733Z,40.40
2022-07-26T17:05:43.698Z,41.90
2022-07-26T17:08:10.620Z,42.50
2022-07-26T17:10:37.577Z,42.70
2022-07-26T17:13:04.461Z,43.10
2022-07-26T17:15:31.342Z,43.50
2022-07-26T17:17:58.192Z,43.70
2022-07-26T17:20:25.732Z,43.80
2022-07-26T17:22:52.773Z,43.60
2022-07-26T17:25:19.644Z,43.90
2022-07-26T17:27:46.351Z,44.10
2022-07-26T17:30:13.897Z,44.10
2022-07-26T17:32:40.744Z,44.20
2022-07-26T17:35:08.848Z,44.50
2022-07-26T17:37:35.808Z,44.60
2022-07-26T17:40:03.936Z,44.10
2022-07-26T17:42:30.875Z,44.20
2022-07-26T17:44:57.712Z,44.10
2022-07-26T17:47:29.509Z,44.60
2022-07-26T17:50:26.179Z,44.50
2022-07-26T17:52:49.767Z,44.30
2022-07-26T17:55:18.280Z,44.50
2022-07-26T17:57:45.220Z,44.60
2022-07-26T18:00:12.584Z,44.50
2022-07-26T18:02:39.330Z,45.00
2022-07-26T18:05:06.337Z,45.30
2022-07-26T18:07:33.228Z,45.70
2022-07-26T18:09:59.950Z,45.60
2022-07-26T18:12:26.723Z,45.40
2022-07-26T18:14:53.457Z,45.80
2022-07-26T18:17:20.292Z,45.70
2022-07-26T18:19:47.041Z,45.30
2022-07-26T18:22:14.115Z,45.20
2022-07-26T18:24:41.063Z,45.40
2022-07-26T18:27:07.959Z,45.40
2022-07-26T18:29:34.887Z,45.20
2022-07-26T18:32:02.225Z,45.60
2022-07-26T18:34:29.112Z,45.80
2022-07-26T18:36:57.035Z,45.80
2022-07-26T18:39:23.828Z,45.60
2022-07-26T18:41:50.690Z,45.90
2022-07-26T18:44:17.460Z,46.50
2022-07-26T18:46:44.286Z,46.80
2022-07-26T18:49:15.821Z,46.70
2022-07-26T18:51:48.832Z,46.40
2022-07-26T18:54:17.334Z,46.90
2022-07-26T18:56:44.090Z,46.80
2022-07-26T18:59:11.456Z,46.70
2022-07-26T19:01:38.623Z,46.90
2022-07-26T19:04:07.218Z,47.20
2022-07-26T19:06:35.637Z,47.50
2022-07-26T19:09:02.518Z,47.60
2022-07-26T19:11:30.207Z,47.80
2022-07-26T19:13:57.147Z,47.90
2022-07-26T19:16:26.655Z,47.80
2022-07-26T19:18:57.281Z,48.20
2022-07-26T19:21:24.762Z,48.80
2022-07-26T19:23:51.528Z,48.90
2022-07-26T19:26:18.358Z,48.70
2022-07-26T19:28:45.290Z,48.70
2022-07-26T19:31:12.170Z,48.20
2022-07-26T19:33:38.931Z,48.30
2022-07-26T19:36:05.982Z,48.30
2022-07-26T19:38:33.069Z,48.40
2022-07-26T19:41:00.683Z,48.60
2022-07-26T19:43:27.871Z,48.50
2022-07-26T19:45:54.789Z,48.60
2022-07-26T19:48:21.599Z,48.70
2022-07-26T19:50:48.678Z,49.10
2022-07-26T19:53:15.472Z,49.10
2022-07-26T19:55:42.490Z,49.60
2022-07-26T19:58:09.501Z,50.20
2022-07-26T20:00:36.399Z,50.00
2022-07-26T20:03:03.541Z,50.30
2022-07-26T20:05:30.555Z,50.60
2022-07-26T20:07:58.086Z,50.90
2022-07-26T20:10:30.004Z,51.10
2022-07-26T20:12:58.632Z,51.10
2022-07-26T20:15:26.031Z,51.50
2022-07-26T20:17:52.955Z,51.40
2022-07-26T20:20:20.274Z,51.50
2022-07-26T20:22:47.159Z,51.80
2022-07-26T20:25:19.463Z,52.30
2022-07-26T20:27:49.804Z,52.40
2022-07-26T20:30:16.740Z,52.30
2022-07-26T20:32:44.143Z,52.50
2022-07-26T20:35:11.149Z,52.30
2022-07-26T20:37:38.130Z,52.40
2022-07-26T20:40:05.426Z,52.30
2022-07-26T20:42:35.173Z,52.60
2022-07-26T20:45:02.140Z,53.20
2022-07-26T20:47:28.850Z,52.80
2022-07-26T20:49:58.483Z,53.00
2022-07-26T20:52:29.536Z,53.30
2022-07-26T20:54:56.330Z,53.60
2022-07-26T20:57:23.545Z,53.70
2022-07-26T20:59:50.380Z,54.10
2022-07-26T21:02:17.260Z,54.10
2022-07-26T21:04:45.570Z,54.10
2022-07-26T21:07:12.354Z,54.20
2022-07-26T21:09:39.106Z,54.50
2022-07-26T21:12:06.118Z,54.90
2022-07-26T21:14:32.872Z,54.60
2022-07-26T21:16:59.673Z,54.70
2022-07-26T21:19:26.463Z,54.70
2022-07-26T21:21:57.055Z,55.10
2022-07-26T21:24:23.881Z,54.50
2022-07-26T21:26:50.678Z,54.40
2022-07-26T21:29:17.505Z,54.70
2022-07-26T21:31:44.181Z,55.10
2022-07-26T21:34:11.554Z,55.20
2022-07-26T21:36:40.273Z,55.40
2022-07-26T21:39:08.121Z,55.70
2022-07-26T21:41:35.775Z,55.30
2022-07-26T21:44:03.581Z,55.90
2022-07-26T21:46:30.715Z,55.50
2022-07-26T21:48:57.541Z,55.60
2022-07-26T21:51:24.326Z,55.70
2022-07-26T21:53:51.047Z,56.00
2022-07-26T21:56:17.721Z,56.10
2022-07-26T21:58:44.436Z,56.20
2022-07-26T22:01:14.013Z,56.30
2022-07-26T22:03:41.951Z,56.50
2022-07-26T22:06:09.875Z,56.80
2022-07-26T22:08:37.287Z,57.20
2022-07-26T22:11:04.630Z,57.60
2022-07-26T22:13:31.803Z,57.50
2022-07-26T22:15:58.596Z,57.70
2022-07-26T22:18:25.558Z,58.20
2022-07-26T22:20:52.554Z,58.00
2022-07-26T22:23:19.709Z,57.90
2022-07-26T22:25:46.775Z,57.80
2022-07-26T22:28:18.339Z,57.70
2022-07-26T22:30:45.928Z,58.10
2022-07-26T22:33:12.932Z,58.50
2022-07-26T22:35:39.678Z,58.50
2022-07-26T22:38:10.926Z,58.70
2022-07-26T22:40:39.257Z,58.60
2022-07-26T22:43:06.534Z,58.50
2022-07-26T22:45:34.147Z,58.70
2022-07-26T22:48:02.657Z,58.90
2022-07-26T22:50:29.825Z,59.10
2022-07-26T22:52:56.845Z,58.70
2022-07-26T22:55:24.080Z,58.70
2022-07-26T22:57:50.872Z,58.90
2022-07-26T23:00:18.943Z,59.50
2022-07-26T23:02:45.736Z,60.30
2022-07-26T23:05:14.770Z,60.80
2022-07-26T23:07:41.753Z,61.30
2022-07-26T23:10:12.460Z,61.70
2022-07-26T23:12:39.261Z,62.00
2022-07-26T23:15:07.005Z,62.10
2022-07-26T23:17:36.797Z,62.30
2022-07-26T23:20:06.272Z,62.30
2022-07-26T23:22:33.403Z,62.00
2022-07-26T23:25:00.139Z,62.00
2022-07-26T23:27:26.873Z,61.70
2022-07-26T23:29:53.727Z,62.20
2022-07-26T23:32:20.542Z,62.60
2022-07-26T23:34:47.219Z,63.00
2022-07-26T23:37:13.908Z,63.00
2022-07-26T23:39:40.588Z,62.80
2022-07-26T23:42:07.430Z,63.20
2022-07-26T23:44:34.375Z,62.80
2022-07-26T23:47:01.487Z,62.90
2022-07-26T23:49:28.395Z,62.70
2022-07-26T23:51:55.752Z,63.20
2022-07-26T23:54:22.448Z,63.70
2022-07-26T23:56:49.194Z,65.20
2022-07-26T23:59:16.141Z,64.90
